Atoka, TN

9:30 AM CST on December 29, 2014 (GMT -0600)
KTNMUNFO2 | Change Station
CLOSE
Current Station
Personal Weather Station
Location: Munford, TN
Elevation: 394 ft
Nearby Weather Stations

Elev 394 ft 35.42 °N, 89.83 °W | Updated 3 minutes ago

Overcast
Overcast
36.0 °F
Feels Like 30 °F
N
6.8
Wind Variable Wind from NW

Today
High -- | Low -- °F
--% Chance of Precip.
Yesterday
High -- | Low -- °F
Precip. -- in
7:07 AM 4:55 PM
First Quarter, 60% visible
Pressure 30.24 in
Visibility 10.0 miles
Clouds Overcast 1200 ft
Windchill 30 °F
Dew Point 34 °F
Humidity 91%
Rainfall 0.00 in
Snow Depth Not available.
UV 0 out of 12
Pollen .10 out of 12
Air Quality Not available.
Flu Activity Not available.
METAR KNQA 291455Z 05006KT 10SM OVC012 02/01 A3024

More Conditions Fewer Conditions

Pressure 30.24 in
Visibility 10.0 miles
Clouds Overcast 1200 ft
Windchill 30 °F
Dew Point 34 °F
Humidity 91%
Rainfall 0.00 in
Snow Depth Not available.
UV 0 out of 12
Pollen .10 out of 12
Air Quality Not available.
Flu Activity Not available.
METAR KNQA 291455Z 05006KT 10SM OVC012 02/01 A3024

More Conditions Fewer Conditions

10-Day Weather Forecast

Almanac

Astronomy

Dec. 29, 2014 Rise Set
Actual Time
Civil Twilight
Nautical Twilight
Astronomical Twilight
Moon
Length of Visible Light
Length of Day
Tomorrow will be .
, % of the Moon is Illuminated

Today's Extremes

State Highs State Lows

Community

WunderPhotos

Upload Photos

1,781,604 photos uploaded!

WunderBlogs® & News

Nearby

Air Quality

  Air Quality AQ Index Pollutant
Not available.

Snow Depth

Station Depth Elevation

Earthquake Activity

City Distance Mag. Time & Date
Minimum magnitude displayed is 2.5.

Coastal Water Temperatures

Place Temperature

Nearby Weather Stations